Time;durP1;ratioP1;P1;durP2;ratioP2;P2;SDS_P1;SDS_P2;PMS_P1;PMS_P2;Temp;Humidity;BMP_temperature;BMP_pressure;BME280_temperature;BME280_humidity;BME280_pressure;Samples;Min_cycle;Max_cycle;Signal;HPM_P1;HPM_P2
2023/12/04 00:02:29;;;;;;;1999.90;999.90;;;;;;;5.29;72.04;101238.00;10416689;28;20484;-61
2023/12/04 00:07:31;;;;;;;1999.90;999.90;;;;;;;5.33;70.66;101237.03;10400223;28;20408;-61
2023/12/04 00:12:34;;;;;;;1999.90;999.90;;;;;;;5.81;72.12;101227.81;10417635;28;20055;-61
2023/12/04 00:17:39;;;;;;;1999.90;999.90;;;;;;;5.18;71.35;101237.47;10418033;28;20099;-62
2023/12/04 00:22:42;;;;;;;1999.90;999.90;;;;;;;5.66;68.85;101210.09;10415906;28;20158;-62
2023/12/04 00:27:44;;;;;;;1999.90;999.90;;;;;;;6.01;69.92;101213.41;10415949;28;20053;-62
2023/12/04 00:32:47;;;;;;;1999.90;999.90;;;;;;;6.38;67.23;101207.84;10415605;28;20513;-62
2023/12/04 00:37:49;;;;;;;1999.90;999.90;;;;;;;6.00;67.94;101186.56;10417223;28;20077;-62
2023/12/04 00:42:51;;;;;;;1999.90;999.90;;;;;;;6.01;68.52;101180.44;10416499;28;20049;-61
2023/12/04 00:47:54;;;;;;;1999.90;999.90;;;;;;;5.37;69.42;101194.50;10416196;28;20444;-62
2023/12/04 00:52:56;;;;;;;1999.90;999.90;;;;;;;5.72;69.39;101186.56;10416350;28;20068;-62
2023/12/04 00:57:59;;;;;;;1999.90;999.90;;;;;;;5.54;68.59;101181.00;10416015;28;20128;-62
2023/12/04 01:03:01;;;;;;;1999.90;999.90;;;;;;;5.50;69.54;101171.63;10414254;28;20156;-62
2023/12/04 01:08:03;;;;;;;1999.90;999.90;;;;;;;6.12;67.70;101175.75;10415660;28;20390;-61
2023/12/04 01:13:06;;;;;;;1999.90;999.90;;;;;;;6.16;67.57;101181.72;10414515;28;20049;-62
2023/12/04 01:18:08;;;;;;;1999.90;999.90;;;;;;;6.14;66.83;101178.31;10415314;28;20100;-61
2023/12/04 01:23:11;;;;;;;1999.90;999.90;;;;;;;5.86;68.30;101166.16;10415159;28;20504;-62
2023/12/04 01:28:14;;;;;;;1999.90;999.90;;;;;;;5.71;69.44;101158.84;10397843;28;20049;-61
2023/12/04 01:33:16;;;;;;;1999.90;999.90;;;;;;;6.25;67.97;101150.19;10415015;28;20085;-62
2023/12/04 01:38:19;;;;;;;1999.90;999.90;;;;;;;5.40;68.77;101144.22;10413836;28;20053;-62
2023/12/04 01:43:22;;;;;;;1999.90;999.90;;;;;;;5.18;70.05;101141.44;10413513;28;20161;-62
2023/12/04 01:48:25;;;;;;;1999.90;999.90;;;;;;;5.74;68.76;101131.03;10413707;28;20136;-62
2023/12/04 01:53:27;;;;;;;1999.90;999.90;;;;;;;5.86;69.31;101129.78;10413199;28;20481;-62
2023/12/04 01:58:30;;;;;;;1999.90;999.90;;;;;;;5.53;70.16;101124.78;10397285;28;20046;-62
2023/12/04 02:03:32;;;;;;;1999.90;999.90;;;;;;;5.71;70.25;101123.31;10414438;28;20128;-62
2023/12/04 02:08:36;;;;;;;1999.90;999.90;;;;;;;4.86;70.67;101103.41;10426058;22;20049;-65
2023/12/04 02:13:39;;;;;;;1999.90;999.90;;;;;;;5.15;70.89;101102.56;10413090;28;20048;-65
2023/12/04 02:18:42;;;;;;;1999.90;999.90;;;;;;;5.10;69.75;101107.91;10420532;28;20057;-65
2023/12/04 02:23:49;;;;;;;1999.90;999.90;;;;;;;5.64;69.27;101098.44;10420569;28;20488;-65
2023/12/04 02:28:55;;;;;;;1999.90;999.90;;;;;;;6.22;68.88;101093.13;10420607;28;20053;-65
2023/12/04 02:33:57;;;;;;;1999.90;999.90;;;;;;;5.30;69.09;101090.88;10421678;28;20045;-65
2023/12/04 02:39:00;;;;;;;1999.90;999.90;;;;;;;6.04;67.71;101080.75;10421571;28;20049;-65
2023/12/04 02:44:02;;;;;;;1999.90;999.90;;;;;;;5.37;69.17;101075.03;10419851;28;20485;-65
2023/12/04 02:49:05;;;;;;;1999.90;999.90;;;;;;;5.32;68.87;101061.34;10419774;28;20077;-65
2023/12/04 02:54:07;;;;;;;1999.90;999.90;;;;;;;5.44;68.61;101054.94;10420799;28;20049;-65
2023/12/04 02:59:10;;;;;;;1999.90;999.90;;;;;;;5.08;69.11;101055.19;10419479;28;20050;-65
2023/12/04 03:04:12;;;;;;;1999.90;999.90;;;;;;;5.30;68.66;101046.75;10420199;28;20064;-64
2023/12/04 03:09:15;;;;;;;1999.90;999.90;;;;;;;5.92;67.47;101036.03;10420024;28;20061;-64
2023/12/04 03:14:17;;;;;;;1999.90;999.90;;;;;;;6.19;67.34;101028.22;10419910;28;20042;-65
2023/12/04 03:19:19;;;;;;;1999.90;999.90;;;;;;;5.53;68.33;101022.59;10419899;28;20045;-64
2023/12/04 03:24:22;;;;;;;1999.90;999.90;;;;;;;5.33;68.24;101021.53;10419506;28;20512;-64
2023/12/04 03:29:24;;;;;;;1999.90;999.90;;;;;;;6.04;67.55;101007.97;10417903;28;20045;-65
2023/12/04 03:34:27;;;;;;;1999.90;999.90;;;;;;;4.78;69.57;101003.31;10419401;28;20120;-64
2023/12/04 03:39:29;;;;;;;1999.90;999.90;;;;;;;5.75;67.67;100997.63;10417809;28;20508;-65
2023/12/04 03:44:31;;;;;;;1999.90;999.90;;;;;;;5.77;67.27;101006.22;10418696;28;20077;-65
2023/12/04 03:49:34;;;;;;;1999.90;999.90;;;;;;;5.15;67.94;100993.56;10418532;28;20080;-65
2023/12/04 03:54:36;;;;;;;1999.90;999.90;;;;;;;5.66;67.78;100984.09;10417371;28;20052;-65
2023/12/04 03:59:39;;;;;;;1999.90;999.90;;;;;;;5.63;67.46;100979.00;10418227;28;20084;-64
2023/12/04 04:04:41;;;;;;;1999.90;999.90;;;;;;;5.31;66.50;100974.00;10418057;28;20049;-65
2023/12/04 04:09:44;;;;;;;1999.90;999.90;;;;;;;5.94;65.41;100969.25;10417592;28;20081;-64
2023/12/04 04:14:46;;;;;;;1999.90;999.90;;;;;;;5.43;67.34;100962.38;10416894;28;20071;-65
2023/12/04 04:19:48;;;;;;;1999.90;999.90;;;;;;;5.35;67.56;100959.16;10416429;28;20060;-65
2023/12/04 04:24:51;;;;;;;1999.90;999.90;;;;;;;5.83;66.21;100953.19;10417178;28;20057;-65
2023/12/04 04:29:54;;;;;;;1999.90;999.90;;;;;;;5.61;66.95;100947.88;10417187;28;20049;-65
2023/12/04 04:34:57;;;;;;;1999.90;999.90;;;;;;;5.24;67.48;100936.13;10416718;28;20519;-64
2023/12/04 04:39:59;;;;;;;1999.90;999.90;;;;;;;5.28;66.67;100931.69;10414649;28;20555;-66
2023/12/04 04:45:02;;;;;;;1999.90;999.90;;;;;;;5.66;66.62;100922.59;10416458;28;20041;-65
2023/12/04 04:50:04;;;;;;;1999.90;999.90;;;;;;;6.01;64.64;100914.50;10416265;28;20057;-65
2023/12/04 04:55:07;;;;;;;1999.90;999.90;;;;;;;5.93;64.90;100909.53;10414929;28;20424;-65
2023/12/04 05:00:10;;;;;;;1999.90;999.90;;;;;;;5.80;65.09;100905.66;10414886;28;20056;-65
2023/12/04 05:05:12;;;;;;;1999.90;999.90;;;;;;;5.72;66.07;100903.38;10414709;28;20060;-65
2023/12/04 05:10:15;;;;;;;1999.90;999.90;;;;;;;5.35;65.96;100904.66;10415786;28;20136;-65
2023/12/04 05:15:17;;;;;;;1999.90;999.90;;;;;;;5.30;65.65;100909.16;10415444;28;20046;-65
2023/12/04 05:20:19;;;;;;;1999.90;999.90;;;;;;;5.34;66.08;100916.75;10415310;28;20046;-65
2023/12/04 05:25:22;;;;;;;1999.90;999.90;;;;;;;5.36;65.17;100908.91;10415259;28;20049;-65
2023/12/04 05:30:26;;;;;;;1999.90;999.90;;;;;;;5.33;66.40;100901.22;10415085;28;20075;-65
2023/12/04 05:35:29;;;;;;;1999.90;999.90;;;;;;;5.49;65.55;100899.81;10414954;28;20042;-64
2023/12/04 05:40:31;;;;;;;1999.90;999.90;;;;;;;5.38;65.18;100888.97;10415001;28;20407;-65
2023/12/04 05:45:33;;;;;;;1999.90;999.90;;;;;;;5.08;64.78;100885.63;10414814;28;20060;-65
2023/12/04 05:50:36;;;;;;;1999.90;999.90;;;;;;;5.23;64.82;100877.34;10417966;28;20084;-64
2023/12/04 05:55:38;;;;;;;1999.90;999.90;;;;;;;5.26;65.56;100860.81;10422128;28;20128;-65
2023/12/04 06:00:40;;;;;;;1999.90;999.90;;;;;;;5.18;65.51;100856.72;10421728;28;20049;-65
2023/12/04 06:05:43;;;;;;;1999.90;999.90;;;;;;;5.53;66.25;100861.59;10422696;28;20045;-65
2023/12/04 06:10:46;;;;;;;1999.90;999.90;;;;;;;5.18;64.74;100850.69;10422299;28;20061;-65
2023/12/04 06:15:49;;;;;;;1999.90;999.90;;;;;;;5.57;63.96;100843.25;10422564;28;20041;-65
2023/12/04 06:20:51;;;;;;;1999.90;999.90;;;;;;;5.25;63.30;100838.38;10422258;28;20104;-64
2023/12/04 06:25:54;;;;;;;1999.90;999.90;;;;;;;5.21;64.15;100842.78;10420667;28;20481;-65
2023/12/04 06:30:57;;;;;;;1999.90;999.90;;;;;;;5.38;63.55;100834.44;10421623;28;20049;-65
2023/12/04 06:36:00;;;;;;;1999.90;999.90;;;;;;;5.29;63.58;100827.78;10421486;28;20136;-65
2023/12/04 06:41:02;;;;;;;1999.90;999.90;;;;;;;5.08;64.59;100818.16;10420172;28;20049;-65
2023/12/04 06:46:06;;;;;;;1999.90;999.90;;;;;;;5.10;63.13;100804.22;10421119;28;20518;-65
2023/12/04 06:51:08;;;;;;;1999.90;999.90;;;;;;;5.44;64.12;100797.00;10420878;28;20053;-65
2023/12/04 06:56:11;;;;;;;1999.90;999.90;;;;;;;5.30;63.50;100784.53;10420848;28;20128;-65
2023/12/04 07:01:13;;;;;;;1999.90;999.90;;;;;;;5.37;63.53;100789.44;10419574;28;20544;-65
2023/12/04 07:06:15;;;;;;;1999.90;999.90;;;;;;;5.03;62.15;100795.81;10420038;28;20405;-65
2023/12/04 07:11:18;;;;;;;1999.90;999.90;;;;;;;5.20;62.93;100774.47;10420131;28;20053;-65
2023/12/04 07:16:20;;;;;;;1999.90;999.90;;;;;;;5.33;62.88;100767.09;10419813;28;20502;-65
2023/12/04 07:21:22;;;;;;;1999.90;999.90;;;;;;;5.64;62.07;100758.16;10418537;28;20050;-65
2023/12/04 07:26:25;;;;;;;1999.90;999.90;;;;;;;5.27;62.26;100753.47;10419608;28;20132;-65
2023/12/04 07:31:27;;;;;;;1999.90;999.90;;;;;;;5.27;61.93;100749.13;10419499;28;20042;-65
2023/12/04 07:36:30;;;;;;;1999.90;999.90;;;;;;;5.51;61.93;100749.97;10419214;28;20051;-65
2023/12/04 07:41:32;;;;;;;1999.90;999.90;;;;;;;5.11;62.25;100751.44;10418846;28;20049;-65
2023/12/04 07:46:35;;;;;;;1999.90;999.90;;;;;;;5.32;61.78;100743.78;10417734;28;20171;-65
2023/12/04 07:51:37;;;;;;;1999.90;999.90;;;;;;;5.62;61.07;100751.34;10418597;28;20049;-65
2023/12/04 07:56:39;;;;;;;1999.90;999.90;;;;;;;5.48;61.46;100738.84;10418535;28;20099;-65
2023/12/04 08:01:42;;;;;;;1999.90;999.90;;;;;;;5.72;61.06;100750.94;10418121;28;20041;-64
2023/12/04 08:06:44;;;;;;;1999.90;999.90;;;;;;;5.52;60.58;100756.88;10418011;28;20123;-64
2023/12/04 08:11:47;;;;;;;1999.90;999.90;;;;;;;5.76;60.27;100747.28;10417793;28;20042;-64
2023/12/04 08:16:49;;;;;;;1999.90;999.90;;;;;;;5.29;61.73;100747.31;10417573;28;20400;-64
2023/12/04 08:21:52;;;;;;;1999.90;999.90;;;;;;;5.87;60.11;100738.28;10417553;28;20045;-65
2023/12/04 08:26:54;;;;;;;1999.90;999.90;;;;;;;5.88;59.66;100726.94;10417076;28;20555;-65
2023/12/04 08:31:56;;;;;;;1999.90;999.90;;;;;;;6.01;59.70;100736.00;10415746;28;20045;-65
2023/12/04 08:36:59;;;;;;;1999.90;999.90;;;;;;;5.77;59.88;100728.22;10416709;28;20053;-64
2023/12/04 08:42:01;;;;;;;1999.90;999.90;;;;;;;6.31;59.92;100720.91;10416457;28;20053;-65
2023/12/04 08:47:08;;;;;;;1999.90;999.90;;;;;;;6.42;58.28;100722.22;10416528;28;20053;-65
2023/12/04 08:52:11;;;;;;;1999.90;999.90;;;;;;;5.75;58.96;100711.00;10416043;28;20045;-64
2023/12/04 08:57:14;;;;;;;1999.90;999.90;;;;;;;6.45;58.73;100711.72;10416052;28;20064;-65
2023/12/04 09:02:16;;;;;;;1999.90;999.90;;;;;;;6.40;57.95;100705.84;10415844;28;20045;-64
2023/12/04 09:07:19;;;;;;;1999.90;999.90;;;;;;;6.49;58.93;100698.53;10415678;28;20061;-64
2023/12/04 09:12:24;;;;;;;1999.90;999.90;;;;;;;6.25;57.26;100684.75;10415686;28;20084;-64
2023/12/04 09:17:27;;;;;;;1999.90;999.90;;;;;;;6.32;57.31;100674.94;10415670;28;20053;-64
2023/12/04 09:22:38;;;;;;;1999.90;999.90;;;;;;;6.39;55.72;100679.00;10415244;28;20124;-65
2023/12/04 09:27:53;;;;;;;1999.90;999.90;;;;;;;7.09;56.01;100666.44;10415042;28;20057;-65
2023/12/04 09:32:56;;;;;;;1999.90;999.90;;;;;;;6.57;56.54;100666.97;10415065;28;20506;-64
2023/12/04 09:37:59;;;;;;;1999.90;999.90;;;;;;;6.37;55.94;100673.03;10413836;28;20152;-64
2023/12/04 09:43:01;;;;;;;1999.90;999.90;;;;;;;6.57;56.48;100673.94;10415058;28;20080;-64
2023/12/04 09:48:04;;;;;;;1999.90;999.90;;;;;;;6.64;57.20;100672.75;10414803;28;20056;-64
2023/12/04 09:53:10;;;;;;;1999.90;999.90;;;;;;;6.40;57.69;100675.47;10413823;28;20057;-64
2023/12/04 09:58:15;;;;;;;1999.90;999.90;;;;;;;6.58;57.05;100663.47;10414652;28;20136;-64
2023/12/04 10:03:17;;;;;;;1999.90;999.90;;;;;;;6.94;57.87;100662.75;10413262;28;20419;-65
2023/12/04 10:08:21;;;;;;;1999.90;999.90;;;;;;;6.14;58.71;100656.63;10414257;28;20092;-64
2023/12/04 10:13:24;;;;;;;1999.90;999.90;;;;;;;6.69;58.52;100648.25;10413148;28;20052;-65
2023/12/04 10:18:46;;;;;;;1999.90;999.90;;;;;;;6.97;56.78;100634.00;10414836;28;20053;-64
2023/12/04 10:23:49;;;;;;;1999.90;999.90;;;;;;;7.07;57.52;100626.63;10414075;28;20132;-64
2023/12/04 10:29:02;;;;;;;1999.90;999.90;;;;;;;7.40;57.09;100631.19;10413993;28;20050;-64
2023/12/04 10:34:05;;;;;;;1999.90;999.90;;;;;;;6.59;57.69;100630.47;10413053;28;20049;-64
2023/12/04 10:39:08;;;;;;;1999.90;999.90;;;;;;;6.18;58.73;100622.69;10419102;28;20058;-65
2023/12/04 10:44:15;;;;;;;1999.90;999.90;;;;;;;6.56;58.57;100608.06;10421220;28;20067;-64
2023/12/04 10:49:18;;;;;;;1999.90;999.90;;;;;;;6.99;57.84;100594.88;10420969;28;20481;-64
2023/12/04 10:54:21;;;;;;;1999.90;999.90;;;;;;;6.94;57.40;100581.22;10420752;28;20436;-64
2023/12/04 10:59:31;;;;;;;1999.90;999.90;;;;;;;6.97;56.79;100581.94;10420574;28;20436;-64
2023/12/04 11:04:36;;;;;;;1999.90;999.90;;;;;;;6.74;57.10;100561.31;10419221;28;20428;-64
2023/12/04 11:09:38;;;;;;;1999.90;999.90;;;;;;;7.15;57.54;100559.41;10418773;28;20057;-65
2023/12/04 11:14:46;;;;;;;1999.90;999.90;;;;;;;7.39;57.08;100561.78;10420339;28;20073;-64
2023/12/04 11:19:58;;;;;;;1999.90;999.90;;;;;;;7.27;56.68;100546.75;10418831;28;20132;-64
2023/12/04 11:25:01;;;;;;;1999.90;999.90;;;;;;;7.10;56.60;100542.34;10419739;28;20049;-64
2023/12/04 11:30:06;;;;;;;1999.90;999.90;;;;;;;7.18;57.67;100535.84;10402378;28;20561;-64
2023/12/04 11:35:14;;;;;;;1999.90;999.90;;;;;;;7.50;57.07;100530.00;10419505;28;20133;-64
2023/12/04 11:40:17;;;;;;;1999.90;999.90;;;;;;;6.86;57.89;100522.59;10417903;28;20076;-64
2023/12/04 11:45:20;;;;;;;1999.90;999.90;;;;;;;7.06;57.67;100516.44;10418840;28;20045;-64
2023/12/04 11:50:24;;;;;;;1999.90;999.90;;;;;;;7.49;57.37;100504.88;10417175;28;20484;-64
2023/12/04 11:55:27;;;;;;;1999.90;999.90;;;;;;;7.24;57.50;100519.91;10417264;28;20401;-65
2023/12/04 12:00:30;;;;;;;1999.90;999.90;;;;;;;6.91;57.70;100506.75;10418317;28;20072;-64
2023/12/04 12:05:33;;;;;;;1999.90;999.90;;;;;;;7.04;57.98;100501.81;10417917;28;20128;-64
2023/12/04 12:10:36;;;;;;;1999.90;999.90;;;;;;;7.06;57.64;100490.41;10400318;28;20065;-64
2023/12/04 12:15:38;;;;;;;1999.90;999.90;;;;;;;7.11;57.50;100481.53;10416611;28;20041;-65
2023/12/04 12:20:41;;;;;;;1999.90;999.90;;;;;;;7.40;57.50;100477.53;10417244;28;20057;-64
2023/12/04 12:25:43;;;;;;;1999.90;999.90;;;;;;;6.90;58.17;100476.44;10417437;28;20049;-65
2023/12/04 12:30:46;;;;;;;1999.90;999.90;;;;;;;7.07;58.62;100467.81;10416949;28;20049;-64
2023/12/04 12:35:49;;;;;;;1999.90;999.90;;;;;;;6.51;58.93;100462.59;10416776;28;20103;-65
2023/12/04 12:41:01;;;;;;;1999.90;999.90;;;;;;;6.88;57.97;100442.66;10416669;28;20049;-65
2023/12/04 12:46:05;;;;;;;1999.90;999.90;;;;;;;6.55;58.44;100439.06;10416638;28;20045;-64
2023/12/04 12:51:10;;;;;;;1999.90;999.90;;;;;;;7.04;57.90;100421.09;10415083;28;20406;-64
2023/12/04 12:56:13;;;;;;;1999.90;999.90;;;;;;;7.39;58.04;100395.91;10414941;28;20547;-64
2023/12/04 13:01:15;;;;;;;1999.90;999.90;;;;;;;7.03;58.46;100399.44;10414159;28;20053;-64
2023/12/04 13:06:18;;;;;;;1999.90;999.90;;;;;;;7.48;57.73;100388.56;10415746;28;20099;-64
2023/12/04 13:11:20;;;;;;;1999.90;999.90;;;;;;;6.61;60.88;100379.78;10415380;28;20548;-64
2023/12/04 13:16:23;;;;;;;1999.90;999.90;;;;;;;6.74;60.34;100368.78;10415544;28;20045;-64
2023/12/04 13:21:26;;;;;;;1999.90;999.90;;;;;;;7.26;60.08;100368.81;10415264;28;20072;-64
2023/12/04 13:26:29;;;;;;;1999.90;999.90;;;;;;;7.14;59.93;100362.47;10414197;28;20091;-64
2023/12/04 13:31:33;;;;;;;1999.90;999.90;;;;;;;6.95;60.75;100362.53;10415132;28;20382;-64
2023/12/04 13:36:36;;;;;;;1999.90;999.90;;;;;;;7.15;61.92;100356.34;10414073;28;20049;-64
2023/12/04 13:47:00;;;;;;;1999.90;999.90;;;;;;;6.78;62.56;100339.94;10415159;28;20511;-65
2023/12/04 13:52:07;;;;;;;1999.90;999.90;;;;;;;7.04;61.72;100332.59;10413655;28;20049;-64
2023/12/04 13:57:13;;;;;;;1999.90;999.90;;;;;;;7.47;62.14;100327.81;10413797;28;20045;-65
2023/12/04 14:02:15;;;;;;;1999.90;999.90;;;;;;;7.15;62.17;100332.06;10414651;28;20064;-64
2023/12/04 14:07:18;;;;;;;1999.90;999.90;;;;;;;7.01;63.35;100323.19;10414413;28;20109;-64
2023/12/04 14:12:22;;;;;;;1999.90;999.90;;;;;;;8.03;62.13;100312.69;10418662;28;20057;-65
2023/12/04 14:17:24;;;;;;;1999.90;999.90;;;;;;;7.51;62.46;100310.25;10422231;28;20485;-65
2023/12/04 14:22:27;;;;;;;1999.90;999.90;;;;;;;7.77;61.34;100308.91;10434106;23;20145;-61
2023/12/04 14:27:29;;;;;;;1999.90;999.90;;;;;;;7.48;62.29;100300.00;10421709;28;20060;-61
2023/12/04 14:32:31;;;;;;;1999.90;999.90;;;;;;;6.98;64.61;100291.28;10420515;28;20400;-61
2023/12/04 14:37:46;;;;;;;1999.90;999.90;;;;;;;8.18;62.06;100284.94;10421537;28;20050;-62
2023/12/04 14:42:49;;;;;;;1999.90;999.90;;;;;;;7.16;65.09;100284.28;10421406;28;20056;-61
2023/12/04 14:47:55;;;;;;;1999.90;999.90;;;;;;;7.28;65.36;100275.84;10420005;28;20057;-62
2023/12/04 14:53:09;;;;;;;1999.90;999.90;;;;;;;6.97;67.06;100279.19;10421081;28;20045;-61
2023/12/04 15:09:36;;;;;;;1999.90;999.90;;;;;;;7.29;66.83;100259.28;10420312;28;20058;-62
2023/12/04 15:14:16;;;;;;;1999.90;999.90;;;;;;;6.83;66.89;100257.28;10419991;28;20122;-61
2023/12/04 15:24:53;;;;;;;1999.90;999.90;;;;;;;6.74;67.69;100246.50;10417560;28;20050;-61
2023/12/04 15:29:55;;;;;;;1999.90;999.90;;;;;;;6.75;69.92;100245.59;10419377;28;20049;-61
2023/12/04 15:34:57;;;;;;;1999.90;999.90;;;;;;;7.07;69.18;100247.38;10419578;28;20121;-61
2023/12/04 15:40:04;;;;;;;1999.90;999.90;;;;;;;6.98;69.94;100240.06;10419073;28;20057;-61
2023/12/04 15:45:07;;;;;;;1999.90;999.90;;;;;;;6.53;71.18;100233.66;10418621;28;20476;-61
2023/12/04 15:50:10;;;;;;;1999.90;999.90;;;;;;;6.46;70.90;100234.88;10418510;28;20126;-61
2023/12/04 15:55:12;;;;;;;1999.90;999.90;;;;;;;6.56;72.42;100219.66;10418407;28;20049;-61
2023/12/04 16:00:15;;;;;;;1999.90;999.90;;;;;;;6.72;71.75;100214.53;10418531;28;20128;-61
2023/12/04 16:05:18;;;;;;;1999.90;999.90;;;;;;;6.21;73.38;100215.28;10417936;28;20049;-62
2023/12/04 16:10:21;;;;;;;1999.90;999.90;;;;;;;5.79;74.28;100207.75;10418078;28;20081;-61
2023/12/04 16:15:23;;;;;;;1999.90;999.90;;;;;;;6.13;74.82;100199.19;10416704;28;20125;-61
2023/12/04 16:20:25;;;;;;;1999.90;999.90;;;;;;;6.49;74.19;100201.75;10417534;28;20053;-61
2023/12/04 16:25:28;;;;;;;1999.90;999.90;;;;;;;6.27;73.58;100204.59;10416994;28;20049;-62
2023/12/04 16:30:30;;;;;;;1999.90;999.90;;;;;;;6.12;73.54;100200.97;10417220;28;20064;-61
2023/12/04 16:35:33;;;;;;;1999.90;999.90;;;;;;;6.08;75.05;100193.38;10415919;28;20132;-62
2023/12/04 16:40:35;;;;;;;1999.90;999.90;;;;;;;6.11;74.39;100182.84;10416662;28;20049;-62
2023/12/04 16:45:37;;;;;;;1999.90;999.90;;;;;;;6.27;74.01;100185.53;10416438;28;20477;-61
2023/12/04 16:50:40;;;;;;;1999.90;999.90;;;;;;;6.10;74.30;100179.41;10416475;28;20053;-62
2023/12/04 16:55:42;;;;;;;1999.90;999.90;;;;;;;5.98;75.10;100171.34;10416188;28;20120;-62
2023/12/04 17:00:44;;;;;;;1999.90;999.90;;;;;;;6.39;73.76;100177.13;10416138;28;20055;-61
2023/12/04 17:05:47;;;;;;;1999.90;999.90;;;;;;;6.28;75.29;100169.84;10415822;28;20061;-61
2023/12/04 17:10:53;;;;;;;1999.90;999.90;;;;;;;5.77;76.50;100155.84;10414860;28;20049;-62
2023/12/04 17:15:55;;;;;;;1999.90;999.90;;;;;;;6.02;74.26;100149.50;10415672;28;20050;-62
2023/12/04 17:20:58;;;;;;;1999.90;999.90;;;;;;;6.63;73.90;100149.03;10415226;28;20049;-62
2023/12/04 17:26:01;;;;;;;1999.90;999.90;;;;;;;6.32;74.07;100148.00;10415232;28;20136;-62
2023/12/04 17:31:04;;;;;;;1999.90;999.90;;;;;;;6.56;74.85;100142.47;10415068;28;20059;-61
2023/12/04 17:36:06;;;;;;;1999.90;999.90;;;;;;;6.27;75.08;100134.38;10413873;28;20041;-62
2023/12/04 17:41:12;;;;;;;1999.90;999.90;;;;;;;5.89;76.49;100128.44;10413871;28;20057;-61
2023/12/04 17:46:14;;;;;;;1999.90;999.90;;;;;;;6.46;74.54;100123.06;10416475;28;20060;-62
2023/12/04 17:51:17;;;;;;;1999.90;999.90;;;;;;;6.38;76.09;100126.03;10422345;28;20167;-61
2023/12/04 17:56:20;;;;;;;1999.90;999.90;;;;;;;5.64;78.65;100114.03;10423055;28;20485;-62
2023/12/04 18:01:23;;;;;;;1999.90;999.90;;;;;;;5.86;78.31;100110.41;10423092;28;20059;-62
2023/12/04 18:06:30;;;;;;;1999.90;999.90;;;;;;;5.88;79.12;100108.56;10422578;28;20502;-62
2023/12/04 18:11:33;;;;;;;1999.90;999.90;;;;;;;5.43;80.13;100097.72;10421692;28;20128;-66
2023/12/04 18:16:37;;;;;;;1999.90;999.90;;;;;;;6.20;78.35;100098.38;10422333;28;20049;-61
2023/12/04 18:21:39;;;;;;;1999.90;999.90;;;;;;;5.99;78.61;100095.09;10421896;28;20496;-62
2023/12/04 18:26:42;;;;;;;1999.90;999.90;;;;;;;6.45;77.99;100077.97;10422073;28;20041;-61
2023/12/04 18:31:45;;;;;;;1999.90;999.90;;;;;;;6.37;77.03;100074.09;10421690;28;20164;-62
2023/12/04 18:36:49;;;;;;;1999.90;999.90;;;;;;;6.45;76.04;100071.94;10420554;28;20068;-62
2023/12/04 18:41:52;;;;;;;1999.90;999.90;;;;;;;6.26;77.09;100070.31;10420175;28;20404;-62
2023/12/04 18:46:56;;;;;;;1999.90;999.90;;;;;;;6.36;79.02;100065.47;10421261;28;20049;-62
2023/12/04 18:51:59;;;;;;;1999.90;999.90;;;;;;;6.57;76.98;100053.09;10420941;28;20053;-62
2023/12/04 18:57:01;;;;;;;1999.90;999.90;;;;;;;6.70;76.54;100061.09;10419612;28;20499;-62
2023/12/04 19:02:04;;;;;;;1999.90;999.90;;;;;;;6.39;77.05;100054.06;10420713;28;20055;-62
2023/12/04 19:07:06;;;;;;;1999.90;999.90;;;;;;;6.70;75.82;100043.72;10419063;28;20053;-62
2023/12/04 19:12:10;;;;;;;1999.90;999.90;;;;;;;6.38;78.30;100042.00;10420228;28;20050;-62
2023/12/04 19:17:13;;;;;;;1999.90;999.90;;;;;;;6.09;78.20;100037.38;10419945;28;20453;-61
2023/12/04 19:22:15;;;;;;;1999.90;999.90;;;;;;;6.41;78.36;100032.28;10419866;28;20095;-62
2023/12/04 19:27:18;;;;;;;1999.90;999.90;;;;;;;6.75;77.71;100020.06;10419464;28;20132;-62
2023/12/04 19:32:20;;;;;;;1999.90;999.90;;;;;;;6.66;78.20;100016.22;10419367;28;20103;-62
2023/12/04 19:37:24;;;;;;;1999.90;999.90;;;;;;;6.63;78.18;100018.13;10419408;28;20045;-61
2023/12/04 19:42:27;;;;;;;1999.90;999.90;;;;;;;6.55;78.49;100017.72;10419066;28;20053;-62
2023/12/04 19:47:30;;;;;;;1999.90;999.90;;;;;;;6.70;78.45;100009.91;10418802;28;20045;-61
2023/12/04 19:52:32;;;;;;;1999.90;999.90;;;;;;;7.01;77.28;100005.66;10418498;28;20055;-62
2023/12/04 19:57:35;;;;;;;1999.90;999.90;;;;;;;6.77;76.55;99996.59;10418407;28;20144;-62
2023/12/04 20:02:37;;;;;;;1999.90;999.90;;;;;;;7.13;76.32;99998.94;10418231;28;20496;-62
2023/12/04 20:07:40;;;;;;;1999.90;999.90;;;;;;;7.45;76.26;100001.47;10417830;28;20132;-62
2023/12/04 20:12:42;;;;;;;1999.90;999.90;;;;;;;7.01;76.75;99992.63;10417794;28;20386;-62
2023/12/04 20:17:45;;;;;;;1999.90;999.90;;;;;;;7.21;75.67;99981.13;10417664;28;20045;-62
2023/12/04 20:22:47;;;;;;;1999.90;999.90;;;;;;;7.21;76.20;99975.91;10417324;28;20111;-62
2023/12/04 20:27:50;;;;;;;1999.90;999.90;;;;;;;7.24;76.11;99974.88;10416056;28;20484;-63
2023/12/04 20:32:53;;;;;;;1999.90;999.90;;;;;;;6.76;77.09;99967.13;10417071;28;20050;-62
2023/12/04 20:37:55;;;;;;;1999.90;999.90;;;;;;;7.65;76.23;99961.25;10417012;28;20049;-63
2023/12/04 20:42:58;;;;;;;1999.90;999.90;;;;;;;7.29;74.85;99954.63;10416540;28;20057;-62
2023/12/04 20:48:01;;;;;;;1999.90;999.90;;;;;;;8.26;72.92;99948.09;10416570;28;20056;-61
2023/12/04 20:53:04;;;;;;;1999.90;999.90;;;;;;;7.20;74.70;99957.78;10415230;28;20045;-61
2023/12/04 20:58:07;;;;;;;1999.90;999.90;;;;;;;7.49;76.03;99948.28;10416177;28;20413;-62
2023/12/04 21:03:09;;;;;;;1999.90;999.90;;;;;;;7.54;76.87;99937.59;10415943;28;20060;-62
2023/12/04 21:08:12;;;;;;;1999.90;999.90;;;;;;;8.19;73.11;99940.63;10415765;28;20132;-62
2023/12/04 21:13:14;;;;;;;1999.90;999.90;;;;;;;8.59;72.82;99944.34;10415621;28;20095;-62
2023/12/04 21:18:16;;;;;;;1999.90;999.90;;;;;;;8.31;73.78;99935.59;10415441;28;20077;-62
2023/12/04 21:23:19;;;;;;;1999.90;999.90;;;;;;;8.18;73.94;99932.91;10414989;28;20080;-62
2023/12/04 21:28:22;;;;;;;1999.90;999.90;;;;;;;8.08;73.64;99931.78;10413937;28;20179;-63
2023/12/04 21:33:25;;;;;;;1999.90;999.90;;;;;;;8.54;72.99;99918.56;10415304;28;20087;-62
2023/12/04 21:38:27;;;;;;;1999.90;999.90;;;;;;;7.94;73.89;99927.41;10415077;28;20124;-62
2023/12/04 21:43:31;;;;;;;1999.90;999.90;;;;;;;8.66;71.71;99919.56;10413575;28;20511;-63
2023/12/04 21:48:34;;;;;;;1999.90;999.90;;;;;;;8.38;72.71;99908.19;10414880;28;20128;-62
2023/12/04 21:53:37;;;;;;;1999.90;999.90;;;;;;;8.13;72.65;99908.88;10414720;28;20587;-62
2023/12/04 21:58:39;;;;;;;1999.90;999.90;;;;;;;8.51;72.63;99908.31;10414564;28;20476;-62
2023/12/04 22:03:44;;;;;;;1999.90;999.90;;;;;;;8.52;72.49;99894.31;10413397;28;20048;-62
2023/12/04 22:08:46;;;;;;;1999.90;999.90;;;;;;;8.29;73.15;99893.97;10414490;28;20077;-62
2023/12/04 22:13:49;;;;;;;1999.90;999.90;;;;;;;8.55;72.43;99888.91;10414292;28;20481;-63
2023/12/04 22:18:51;;;;;;;1999.90;999.90;;;;;;;8.27;72.94;99880.19;10413042;28;20128;-62
2023/12/04 22:23:54;;;;;;;1999.90;999.90;;;;;;;8.32;74.15;99869.44;10414127;28;20065;-62
2023/12/04 22:28:56;;;;;;;1999.90;999.90;;;;;;;8.64;74.64;99872.69;10412727;28;20481;-62
2023/12/04 22:34:00;;;;;;;1999.90;999.90;;;;;;;8.83;71.98;99874.94;10419283;28;20041;-62